Página principal
METAR-TAF:

METAR-TAF

Aeroportos :

Comiso, Itália

latitude: 36-59-30N, longitude: 14-36-25E, altura: 190 m

Observação actual do tempo

O boletim foi feito há 32 minutos, às 18:50 UTC
Vento 2 kt de este
Temperatura 13°C
Humidade 100%
Pressão 1024 hPa
Visibilidade 10 km ou mais
sem nuvens abaixo de 1500 metros e sem cumulonimbus

METAR: LICB 141850Z 09002KT CAVOK 13/13 Q1024

Hora: 20:22 (19:22 UTC)

Previsão

O boletim foi feito há 2 horas e 22 minutos, às 17:00 UTC
Previsão válida de 14 às 18 UTC a 15 às 03 UTC
Vento 4 kt com direcção variável
Visibilidade 10 km ou mais
Poucas nuvensa uma altura de 3000 ft
Temporariamente
de 14 às 20 UTC a 15 às 03 UTC
Visibilidade: 3000 m
neblina

TAF: LICB 141700Z 1418/1503 VRB04KT 9999 FEW030 TEMPO 1420/1503 3000 BR

Observações e previsões do tempo de mais de 4000 aeroportos (mensagens METAR e TAF).

As estações disponíveis são os pontos amarelos e vermelhos sobre o mapa.

Mova o rato sobre o mapa para ver o nome da estação.

Depois clique no ponto para visualizar as observações e previsões meteorológicas.

Para alterar o mapa : clique nos botões verdes com uma cruz preta para aumentar o zoom; no botão verde com uma pitada de zoom; ou nas setas verdes para mapas adjacentes.


METAR-TAF: